Terminal Aerodrome Forecast
Issued by NWS Miami, FL

Home | Current Version | Previous Version | Text Only | Print | Product List | Glossary On
Versions: 1 2 3 4 5 6 7 8 9 10 11 12 13 14 15 16 17 18 19 20 21 22 23 24
000
FTUS42 KMFL 191121
TAFPBI
TAF
KPBI 191121Z 1912/2012 26006KT P6SM SHRA SCT024 BKN050
     FM191400 22012KT P6SM VCSH SCT025 BKN050
     FM191800 21010G20KT P6SM BKN035
     FM192300 28007KT P6SM FEW025 SCT250=

USA.gov is the U.S. government's official web portal to all federal, state and local government web resources and services.